Decoded Metar for LFKF (FIGARI in CORSE ISL.) (IATA:FSC) | Meteo·Mobile Aviation Weather
aviador You're here:

LFKF Decoded Metar

FIGARI in CORSE ISL.
Report Time2019-02-22 00:00:00
UTC Time2019-02-22 00:20:29
Flight Rules ifr IFR
WindVRB at 02 kt
Visibility4400 m
Phenomena:Mist
Clouds:Scattered 019 Hf
CeilingNone
Temp01°C (ISA -14)
Dew Point01°C (100% RH)
AAT-1.6°C
QNH1028 hPa
Density Alt-2,034 ft
Elevation75 ft
Report Wrong Elevation
Raw Report
LFKF 220000Z AUTO VRB02KT 4400 BR SCT019 01/01 Q1028=

Extra information for LFKF:More info

Metar Taf Metar & Taf Last 4 Metars F.Rules Stats Wind Profile Meteogram Temp Stats Airport Information Weather charts Add Link Nearby VenuesMetar ALERT Operation Metar Decoded Social comments